Time,TemperatureF,DewpointF,PressureIn,WindDirection,WindDirectionDegrees,WindSpeedMPH,WindSpeedGustMPH,Humidity,HourlyPrecipIn,Conditions,Clouds,dailyrainin,SoftwareType,DateUTC
2013-04-25 00:04:00,58.0,44.2,30.07,West,270,3.4,3.4,60,0.00,,,0.01,WUHU216HW,2013-04-25 04:04:00,
2013-04-25 00:34:00,56.2,41.0,30.09,West,270,2.9,2.9,57,0.00,,,0.00,WUHU216HW,2013-04-25 04:34:00,
2013-04-25 01:04:00,55.1,40.5,30.10,WNW,293,2.5,2.5,58,0.00,,,0.00,WUHU216HW,2013-04-25 05:04:00,
2013-04-25 01:34:00,53.1,37.7,30.10,West,270,3.6,3.6,56,0.00,,,0.00,WUHU216HW,2013-04-25 05:34:00,
2013-04-25 02:04:00,50.8,36.5,30.12,WNW,293,2.0,2.0,58,0.00,,,0.00,WUHU216HW,2013-04-25 06:04:00,
2013-04-25 02:34:00,48.8,35.6,30.12,West,270,1.8,1.8,60,0.00,,,0.00,WUHU216HW,2013-04-25 06:34:00,
2013-04-25 03:04:00,47.5,34.7,30.13,West,270,2.0,2.0,61,0.00,,,0.00,WUHU216HW,2013-04-25 07:04:00,
2013-04-25 03:34:00,46.6,34.3,30.15,WNW,293,2.2,2.2,62,0.00,,,0.00,WUHU216HW,2013-04-25 07:34:00,
2013-04-25 04:04:00,45.7,33.4,30.16,West,270,1.8,1.8,62,0.00,,,0.00,WUHU216HW,2013-04-25 08:04:00,
2013-04-25 04:34:00,45.5,32.9,30.18,West,270,1.8,1.8,61,0.00,,,0.00,WUHU216HW,2013-04-25 08:34:00,
2013-04-25 05:04:00,45.0,31.6,30.21,WNW,293,2.0,2.0,59,0.00,,,0.00,WUHU216HW,2013-04-25 09:04:00,
2013-04-25 05:34:00,44.3,31.7,30.22,NW,315,0.0,0.0,61,0.00,,,0.00,WUHU216HW,2013-04-25 09:34:00,
2013-04-25 06:04:00,43.2,31.4,30.23,South,180,0.0,0.0,63,0.00,,,0.00,WUHU216HW,2013-04-25 10:04:00,
2013-04-25 06:34:00,43.6,31.8,30.23,WSW,248,0.4,0.4,63,0.00,,,0.00,WUHU216HW,2013-04-25 10:34:00,
2013-04-25 07:04:00,42.8,32.7,30.25,WNW,293,0.0,0.0,67,0.00,,,0.00,WUHU216HW,2013-04-25 11:04:00,
2013-04-25 07:34:00,44.3,33.2,30.27,SSW,203,0.0,0.0,65,0.00,,,0.00,WUHU216HW,2013-04-25 11:34:00,
2013-04-25 08:04:00,45.0,35.1,30.28,SE,135,0.4,0.4,68,0.00,,,0.00,WUHU216HW,2013-04-25 12:04:00,
2013-04-25 08:34:00,47.7,34.9,30.29,NW,315,0.0,0.0,61,0.00,,,0.00,WUHU216HW,2013-04-25 12:34:00,
2013-04-25 09:04:00,50.0,34.5,30.29,WSW,248,1.8,1.8,55,0.00,,,0.00,WUHU216HW,2013-04-25 13:04:00,
2013-04-25 09:34:00,50.8,34.7,30.30,NW,315,2.5,2.5,54,0.00,,,0.00,WUHU216HW,2013-04-25 13:34:00,
2013-04-25 10:04:00,50.9,33.9,30.30,West,270,1.8,1.8,52,0.00,,,0.00,WUHU216HW,2013-04-25 14:04:00,
2013-04-25 10:34:00,51.8,34.3,30.30,SW,225,1.3,1.3,51,0.00,,,0.00,WUHU216HW,2013-04-25 14:34:00,
2013-04-25 11:04:00,53.5,36.3,30.30,SE,135,4.7,4.7,52,0.00,,,0.00,WUHU216HW,2013-04-25 15:04:00,
2013-04-25 11:34:00,53.8,34.5,30.29,WSW,248,1.1,1.1,48,0.00,,,0.00,WUHU216HW,2013-04-25 15:34:00,
2013-04-25 12:04:00,55.3,35.3,30.29,ESE,113,0.9,0.9,47,0.00,,,0.00,WUHU216HW,2013-04-25 16:04:00,
2013-04-25 12:34:00,56.7,36.6,30.28,ESE,113,2.5,2.5,47,0.00,,,0.00,WUHU216HW,2013-04-25 16:34:00,
2013-04-25 13:04:00,59.9,37.9,30.28,South,180,2.9,2.9,44,0.00,,,0.00,WUHU216HW,2013-04-25 17:04:00,
2013-04-25 13:34:00,59.4,36.8,30.27,WSW,248,0.9,0.9,43,0.00,,,0.00,WUHU216HW,2013-04-25 17:34:00,
2013-04-25 14:04:00,60.3,34.5,30.26,WNW,293,3.6,3.6,38,0.00,,,0.00,WUHU216HW,2013-04-25 18:04:00,
2013-04-25 14:34:00,60.1,31.4,30.26,NW,315,4.0,4.0,34,0.00,,,0.00,WUHU216HW,2013-04-25 18:34:00,
2013-04-25 15:04:00,61.0,29.4,30.25,South,180,1.1,1.1,30,0.00,,,0.00,WUHU216HW,2013-04-25 19:04:00,
2013-04-25 15:34:00,63.0,26.2,30.23,ESE,113,2.2,2.2,25,0.00,,,0.00,WUHU216HW,2013-04-25 19:34:00,
2013-04-25 16:04:00,63.9,30.0,30.22,East,90,2.0,2.0,28,0.00,,,0.00,WUHU216HW,2013-04-25 20:04:00,
2013-04-25 16:34:00,63.9,31.0,30.21,ESE,113,4.0,4.0,29,0.00,,,0.00,WUHU216HW,2013-04-25 20:34:00,
2013-04-25 17:04:00,64.1,29.2,30.19,SSW,203,2.0,2.0,27,0.00,,,0.00,WUHU216HW,2013-04-25 21:04:00,
2013-04-25 17:34:00,64.8,31.8,30.19,SW,225,0.7,0.7,29,0.00,,,0.00,WUHU216HW,2013-04-25 21:34:00,
2013-04-25 18:04:00,67.0,33.6,30.19,SSE,158,2.0,2.0,29,0.00,,,0.00,WUHU216HW,2013-04-25 22:04:00,
2013-04-25 18:34:00,69.5,34.7,30.20,ESE,113,2.2,2.2,28,0.00,,,0.00,WUHU216HW,2013-04-25 22:34:00,
2013-04-25 19:04:00,64.6,32.6,30.20,NE,45,1.6,1.6,30,0.00,,,0.00,WUHU216HW,2013-04-25 23:04:00,
2013-04-25 19:34:00,61.4,29.6,30.20,ENE,68,0.7,0.7,30,0.00,,,0.00,WUHU216HW,2013-04-25 23:34:00,
2013-04-25 20:04:00,58.7,29.5,30.21,NNW,338,0.4,0.4,33,0.00,,,0.00,WUHU216HW,2013-04-26 00:04:00,
2013-04-25 20:34:00,56.5,30.3,30.23,WNW,293,1.3,1.3,37,0.00,,,0.00,WUHU216HW,2013-04-26 00:34:00,
2013-04-25 21:04:00,54.2,30.3,30.25,WSW,248,2.0,2.0,40,0.00,,,0.00,WUHU216HW,2013-04-26 01:04:00,
2013-04-25 21:34:00,52.2,29.7,30.27,WSW,248,2.5,2.5,42,0.00,,,0.00,WUHU216HW,2013-04-26 01:34:00,
2013-04-25 22:04:00,49.0,30.6,30.30,South,180,1.3,1.3,49,0.00,,,0.00,WUHU216HW,2013-04-26 02:04:00,
2013-04-25 22:34:00,53.6,29.2,30.32,SW,225,1.3,1.3,39,0.00,,,0.00,WUHU216HW,2013-04-26 02:34:00,
2013-04-25 23:04:00,50.6,27.7,30.33,NNW,338,0.0,0.0,41,0.00,,,0.00,WUHU216HW,2013-04-26 03:04:00,
2013-04-25 23:34:00,48.2,26.6,30.34,East,90,0.2,0.2,43,0.00,,,0.00,WUHU216HW,2013-04-26 03:34:00,